sensor_id;sensor_type;location;lat;lon;timestamp;pressure;altitude;pressure_sealevel;temperature;humidity
63287;BME280;49410;55.708;37.522;2023-02-20T00:00:36;97336.06;;;-5.51;nan
63287;BME280;49410;55.708;37.522;2023-02-20T00:03:03;97329.75;;;-5.50;nan
63287;BME280;49410;55.708;37.522;2023-02-20T00:05:28;97339.19;;;-5.46;nan
63287;BME280;49410;55.708;37.522;2023-02-20T00:07:54;97325.66;;;-5.54;nan
63287;BME280;49410;55.708;37.522;2023-02-20T00:10:19;97321.22;;;-5.65;nan
63287;BME280;49410;55.708;37.522;2023-02-20T00:12:45;97337.41;;;-5.56;nan
63287;BME280;49410;55.708;37.522;2023-02-20T00:15:11;97334.75;;;-5.56;nan
63287;BME280;49410;55.708;37.522;2023-02-20T00:17:38;97328.34;;;-5.65;nan
63287;BME280;49410;55.708;37.522;2023-02-20T00:20:03;97337.91;;;-5.63;nan
63287;BME280;49410;55.708;37.522;2023-02-20T00:22:29;97318.59;;;-5.76;nan
63287;BME280;49410;55.708;37.522;2023-02-20T00:24:54;97336.19;;;-5.64;nan
63287;BME280;49410;55.708;37.522;2023-02-20T00:27:20;97325.34;;;-5.72;nan
63287;BME280;49410;55.708;37.522;2023-02-20T00:29:46;97337.78;;;-5.61;nan
63287;BME280;49410;55.708;37.522;2023-02-20T00:32:11;97335.13;;;-5.61;nan
63287;BME280;49410;55.708;37.522;2023-02-20T00:34:37;97328.72;;;-5.70;nan
63287;BME280;49410;55.708;37.522;2023-02-20T00:37:03;97336.81;;;-5.60;nan
63287;BME280;49410;55.708;37.522;2023-02-20T00:39:30;97323.88;;;-5.65;nan
63287;BME280;49410;55.708;37.522;2023-02-20T00:41:56;97321.47;;;-5.68;nan
63287;BME280;49410;55.708;37.522;2023-02-20T00:44:22;97329.22;;;-5.65;nan
63287;BME280;49410;55.708;37.522;2023-02-20T00:46:47;97318.66;;;-5.66;nan
63287;BME280;49410;55.708;37.522;2023-02-20T00:49:13;97332.19;;;-5.58;nan
63287;BME280;49410;55.708;37.522;2023-02-20T00:51:39;97336.44;;;-5.55;nan
63287;BME280;49410;55.708;37.522;2023-02-20T00:54:05;97330.25;;;-5.56;nan
63287;BME280;49410;55.708;37.522;2023-02-20T00:56:30;97312.50;;;-5.67;nan
63287;BME280;49410;55.708;37.522;2023-02-20T00:58:56;97330.38;;;-5.57;nan
63287;BME280;49410;55.708;37.522;2023-02-20T01:01:22;97328.91;;;-5.50;nan
63287;BME280;49410;55.708;37.522;2023-02-20T01:03:47;97327.22;;;-5.51;nan
63287;BME280;49410;55.708;37.522;2023-02-20T01:06:13;97307.97;;;-5.55;nan
63287;BME280;49410;55.708;37.522;2023-02-20T01:08:38;97321.38;;;-5.45;nan
63287;BME280;49410;55.708;37.522;2023-02-20T01:11:04;97315.00;;;-5.54;nan
63287;BME280;49410;55.708;37.522;2023-02-20T01:13:30;97320.78;;;-5.49;nan
63287;BME280;49410;55.708;37.522;2023-02-20T01:15:56;97323.91;;;-5.43;nan
63287;BME280;49410;55.708;37.522;2023-02-20T01:18:21;97329.97;;;-5.41;nan
63287;BME280;49410;55.708;37.522;2023-02-20T01:20:47;97318.09;;;-5.49;nan
63287;BME280;49410;55.708;37.522;2023-02-20T01:23:12;97328.13;;;-5.41;nan
63287;BME280;49410;55.708;37.522;2023-02-20T01:25:37;97327.69;;;-5.46;nan
63287;BME280;49410;55.708;37.522;2023-02-20T01:28:03;97339.66;;;-5.40;nan
63287;BME280;49410;55.708;37.522;2023-02-20T01:30:28;97329.63;;;-5.48;nan
63287;BME280;49410;55.708;37.522;2023-02-20T01:32:54;97326.63;;;-5.55;nan
63287;BME280;49410;55.708;37.522;2023-02-20T01:35:19;97332.91;;;-5.56;nan
63287;BME280;49410;55.708;37.522;2023-02-20T01:37:45;97332.16;;;-5.47;nan
63287;BME280;49410;55.708;37.522;2023-02-20T01:40:16;97340.16;;;-5.47;nan
63287;BME280;49410;55.708;37.522;2023-02-20T01:42:42;97337.38;;;-5.45;nan
63287;BME280;49410;55.708;37.522;2023-02-20T01:45:35;97335.69;;;-5.46;nan
63287;BME280;49410;55.708;37.522;2023-02-20T01:48:01;97346.19;;;-5.44;nan
63287;BME280;49410;55.708;37.522;2023-02-20T01:50:40;97329.81;;;-5.61;nan
63287;BME280;49410;55.708;37.522;2023-02-20T01:53:10;97315.25;;;-5.57;nan
63287;BME280;49410;55.708;37.522;2023-02-20T01:55:58;97341.47;;;-5.41;nan
63287;BME280;49410;55.708;37.522;2023-02-20T01:58:28;97339.75;;;-5.42;nan
63287;BME280;49410;55.708;37.522;2023-02-20T02:00:56;97344.13;;;-5.41;nan
63287;BME280;49410;55.708;37.522;2023-02-20T02:03:29;97340.50;;;-5.40;nan
63287;BME280;49410;55.708;37.522;2023-02-20T02:06:03;97347.75;;;-5.42;nan
63287;BME280;49410;55.708;37.522;2023-02-20T02:08:29;97342.09;;;-5.49;nan
63287;BME280;49410;55.708;37.522;2023-02-20T02:11:03;97353.22;;;-5.43;nan
63287;BME280;49410;55.708;37.522;2023-02-20T02:13:30;97357.00;;;-5.46;nan
63287;BME280;49410;55.708;37.522;2023-02-20T02:21:46;97353.25;;;-5.55;nan
63287;BME280;49410;55.708;37.522;2023-02-20T02:33:13;97342.00;;;-5.58;nan
63287;BME280;49410;55.708;37.522;2023-02-20T02:39:08;97377.38;;;-5.56;nan
63287;BME280;49410;55.708;37.522;2023-02-20T02:41:45;97368.50;;;-5.57;nan
63287;BME280;49410;55.708;37.522;2023-02-20T02:47:20;97368.44;;;-5.67;nan
63287;BME280;49410;55.708;37.522;2023-02-20T02:49:56;97358.03;;;-5.70;nan
63287;BME280;49410;55.708;37.522;2023-02-20T02:52:25;97353.53;;;-5.69;nan
63287;BME280;49410;55.708;37.522;2023-02-20T02:55:07;97364.06;;;-5.68;nan
63287;BME280;49410;55.708;37.522;2023-02-20T02:57:33;97369.75;;;-5.61;nan
63287;BME280;49410;55.708;37.522;2023-02-20T03:00:55;97366.50;;;-5.65;nan
63287;BME280;49410;55.708;37.522;2023-02-20T03:03:18;97373.50;;;-5.64;nan
63287;BME280;49410;55.708;37.522;2023-02-20T03:05:53;97366.25;;;-5.73;nan
63287;BME280;49410;55.708;37.522;2023-02-20T03:11:23;97375.56;;;-5.67;nan
63287;BME280;49410;55.708;37.522;2023-02-20T03:19:36;97356.25;;;-5.81;nan
63287;BME280;49410;55.708;37.522;2023-02-20T03:22:10;97365.56;;;-5.75;nan
63287;BME280;49410;55.708;37.522;2023-02-20T03:24:37;97363.59;;;-5.84;nan
63287;BME280;49410;55.708;37.522;2023-02-20T03:27:46;97363.16;;;-5.89;nan
63287;BME280;49410;55.708;37.522;2023-02-20T03:30:26;97357.78;;;-6.11;nan
63287;BME280;49410;55.708;37.522;2023-02-20T03:33:18;97375.03;;;-6.05;nan
63287;BME280;49410;55.708;37.522;2023-02-20T03:36:04;97373.75;;;-6.11;nan
63287;BME280;49410;55.708;37.522;2023-02-20T03:39:03;97368.66;;;-6.14;nan
63287;BME280;49410;55.708;37.522;2023-02-20T03:41:49;97362.97;;;-6.20;nan
63287;BME280;49410;55.708;37.522;2023-02-20T03:44:34;97379.53;;;-6.17;nan
63287;BME280;49410;55.708;37.522;2023-02-20T03:47:02;97388.84;;;-6.11;nan
63287;BME280;49410;55.708;37.522;2023-02-20T03:49:34;97387.16;;;-6.12;nan
63287;BME280;49410;55.708;37.522;2023-02-20T03:52:02;97368.06;;;-6.17;nan
63287;BME280;49410;55.708;37.522;2023-02-20T03:54:28;97385.44;;;-6.13;nan
63287;BME280;49410;55.708;37.522;2023-02-20T03:56:58;97377.09;;;-6.20;nan
63287;BME280;49410;55.708;37.522;2023-02-20T03:59:43;97368.41;;;-6.22;nan
63287;BME280;49410;55.708;37.522;2023-02-20T04:02:25;97391.63;;;-6.13;nan
63287;BME280;49410;55.708;37.522;2023-02-20T04:04:54;97364.16;;;-6.25;nan
63287;BME280;49410;55.708;37.522;2023-02-20T04:07:27;97384.72;;;-6.15;nan
63287;BME280;49410;55.708;37.522;2023-02-20T04:09:58;97377.59;;;-6.26;nan
63287;BME280;49410;55.708;37.522;2023-02-20T04:12:27;97350.63;;;-6.44;nan
63287;BME280;49410;55.708;37.522;2023-02-20T04:14:55;97371.78;;;-6.20;nan
63287;BME280;49410;55.708;37.522;2023-02-20T04:17:26;97377.00;;;-6.18;nan
63287;BME280;49410;55.708;37.522;2023-02-20T04:19:53;97382.78;;;-6.13;nan
63287;BME280;49410;55.708;37.522;2023-02-20T04:22:28;97390.78;;;-6.25;nan
63287;BME280;49410;55.708;37.522;2023-02-20T04:27:20;97396.81;;;-6.11;nan
63287;BME280;49410;55.708;37.522;2023-02-20T04:29:46;97378.19;;;-6.22;nan
63287;BME280;49410;55.708;37.522;2023-02-20T04:32:12;97392.69;;;-6.15;nan
63287;BME280;49410;55.708;37.522;2023-02-20T04:34:38;97388.00;;;-6.23;nan
63287;BME280;49410;55.708;37.522;2023-02-20T04:37:09;97370.56;;;-6.27;nan
63287;BME280;49410;55.708;37.522;2023-02-20T04:39:35;97382.56;;;-6.21;nan
63287;BME280;49410;55.708;37.522;2023-02-20T04:42:01;97367.69;;;-6.35;nan
63287;BME280;49410;55.708;37.522;2023-02-20T04:44:26;97377.72;;;-6.28;nan
63287;BME280;49410;55.708;37.522;2023-02-20T04:47:01;97387.28;;;-6.25;nan
63287;BME280;49410;55.708;37.522;2023-02-20T04:49:27;97381.94;;;-6.25;nan
63287;BME280;49410;55.708;37.522;2023-02-20T04:51:53;97389.44;;;-6.30;nan
63287;BME280;49410;55.708;37.522;2023-02-20T04:54:18;97401.91;;;-6.19;nan
63287;BME280;49410;55.708;37.522;2023-02-20T04:56:44;97398.75;;;-6.13;nan
63287;BME280;49410;55.708;37.522;2023-02-20T04:59:09;97394.41;;;-6.26;nan
63287;BME280;49410;55.708;37.522;2023-02-20T05:01:35;97407.09;;;-6.06;nan
63287;BME280;49410;55.708;37.522;2023-02-20T05:04:00;97413.28;;;-6.06;nan
63287;BME280;49410;55.708;37.522;2023-02-20T05:06:26;97411.00;;;-6.11;nan
63287;BME280;49410;55.708;37.522;2023-02-20T05:08:51;97412.19;;;-6.15;nan
63287;BME280;49410;55.708;37.522;2023-02-20T05:11:17;97419.09;;;-6.12;nan
63287;BME280;49410;55.708;37.522;2023-02-20T05:13:42;97408.81;;;-6.17;nan
63287;BME280;49410;55.708;37.522;2023-02-20T05:16:08;97407.47;;;-6.11;nan
63287;BME280;49410;55.708;37.522;2023-02-20T05:18:34;97416.91;;;-6.07;nan
63287;BME280;49410;55.708;37.522;2023-02-20T05:20:59;97399.97;;;-6.17;nan
63287;BME280;49410;55.708;37.522;2023-02-20T05:23:47;97403.97;;;-6.12;nan
63287;BME280;49410;55.708;37.522;2023-02-20T05:26:17;97390.53;;;-6.21;nan
63287;BME280;49410;55.708;37.522;2023-02-20T05:28:43;97393.03;;;-5.97;nan
63287;BME280;49410;55.708;37.522;2023-02-20T05:31:09;97396.56;;;-5.97;nan
63287;BME280;49410;55.708;37.522;2023-02-20T05:33:35;97404.81;;;-6.00;nan
63287;BME280;49410;55.708;37.522;2023-02-20T05:36:01;97412.75;;;-5.88;nan
63287;BME280;49410;55.708;37.522;2023-02-20T05:38:26;97416.38;;;-5.89;nan
63287;BME280;49410;55.708;37.522;2023-02-20T05:40:52;97398.50;;;-5.99;nan
63287;BME280;49410;55.708;37.522;2023-02-20T05:43:17;97417.72;;;-5.95;nan
63287;BME280;49410;55.708;37.522;2023-02-20T05:45:43;97416.38;;;-5.89;nan
63287;BME280;49410;55.708;37.522;2023-02-20T05:48:10;97412.75;;;-5.88;nan
63287;BME280;49410;55.708;37.522;2023-02-20T05:50:36;97411.66;;;-5.86;nan
63287;BME280;49410;55.708;37.522;2023-02-20T05:53:01;97407.31;;;-5.87;nan
63287;BME280;49410;55.708;37.522;2023-02-20T05:55:27;97418.56;;;-5.83;nan
63287;BME280;49410;55.708;37.522;2023-02-20T05:57:53;97426.31;;;-5.80;nan
63287;BME280;49410;55.708;37.522;2023-02-20T06:00:18;97412.06;;;-6.02;nan
63287;BME280;49410;55.708;37.522;2023-02-20T06:02:44;97424.88;;;-5.96;nan
63287;BME280;49410;55.708;37.522;2023-02-20T06:05:10;97417.28;;;-6.00;nan
63287;BME280;49410;55.708;37.522;2023-02-20T06:07:35;97435.16;;;-5.91;nan
63287;BME280;49410;55.708;37.522;2023-02-20T06:10:02;97429.22;;;-5.95;nan
63287;BME280;49410;55.708;37.522;2023-02-20T06:12:28;97420.50;;;-5.97;nan
63287;BME280;49410;55.708;37.522;2023-02-20T06:14:53;97432.22;;;-5.88;nan
63287;BME280;49410;55.708;37.522;2023-02-20T06:17:19;97443.84;;;-5.78;nan
63287;BME280;49410;55.708;37.522;2023-02-20T06:19:45;97446.63;;;-5.68;nan
63287;BME280;49410;55.708;37.522;2023-02-20T06:22:10;97447.59;;;-5.69;nan
63287;BME280;49410;55.708;37.522;2023-02-20T06:24:36;97411.66;;;-5.86;nan
63287;BME280;49410;55.708;37.522;2023-02-20T06:27:01;97447.81;;;-5.61;nan
63287;BME280;49410;55.708;37.522;2023-02-20T06:29:27;97444.66;;;-5.54;nan
63287;BME280;49410;55.708;37.522;2023-02-20T06:31:53;97447.31;;;-5.54;nan
63287;BME280;49410;55.708;37.522;2023-02-20T06:34:21;97460.91;;;-5.46;nan
63287;BME280;49410;55.708;37.522;2023-02-20T06:36:50;97433.31;;;-5.56;nan
63287;BME280;49410;55.708;37.522;2023-02-20T06:39:15;97441.75;;;-5.51;nan
63287;BME280;49410;55.708;37.522;2023-02-20T06:41:41;97432.94;;;-5.52;nan
63287;BME280;49410;55.708;37.522;2023-02-20T06:44:06;97440.78;;;-5.39;nan
63287;BME280;49410;55.708;37.522;2023-02-20T06:46:32;97437.72;;;-5.34;nan
63287;BME280;49410;55.708;37.522;2023-02-20T06:48:58;97447.78;;;-5.38;nan
63287;BME280;49410;55.708;37.522;2023-02-20T06:51:25;97448.13;;;-5.20;nan
63287;BME280;49410;55.708;37.522;2023-02-20T06:53:50;97449.34;;;-5.24;nan
63287;BME280;49410;55.708;37.522;2023-02-20T06:56:18;97453.59;;;-5.33;nan
63287;BME280;49410;55.708;37.522;2023-02-20T06:58:45;97454.66;;;-5.24;nan
63287;BME280;49410;55.708;37.522;2023-02-20T07:01:11;97452.41;;;-5.40;nan
63287;BME280;49410;55.708;37.522;2023-02-20T07:03:37;97467.53;;;-5.29;nan
63287;BME280;49410;55.708;37.522;2023-02-20T07:06:02;97460.50;;;-5.30;nan
63287;BME280;49410;55.708;37.522;2023-02-20T07:08:28;97447.06;;;-5.40;nan
63287;BME280;49410;55.708;37.522;2023-02-20T07:10:54;97452.59;;;-5.20;nan
63287;BME280;49410;55.708;37.522;2023-02-20T07:13:20;97455.47;;;-5.12;nan
63287;BME280;49410;55.708;37.522;2023-02-20T07:15:47;97448.06;;;-5.08;nan
63287;BME280;49410;55.708;37.522;2023-02-20T07:18:12;97447.81;;;-5.05;nan
63287;BME280;49410;55.708;37.522;2023-02-20T07:20:39;97449.09;;;-4.88;nan
63287;BME280;49410;55.708;37.522;2023-02-20T07:23:04;97463.81;;;-4.73;nan
63287;BME280;49410;55.708;37.522;2023-02-20T07:25:30;97453.50;;;-4.77;nan
63287;BME280;49410;55.708;37.522;2023-02-20T07:27:55;97469.63;;;-4.68;nan
63287;BME280;49410;55.708;37.522;2023-02-20T07:30:21;97466.69;;;-4.64;nan
63287;BME280;49410;55.708;37.522;2023-02-20T07:32:49;97453.75;;;-4.69;nan
63287;BME280;49410;55.708;37.522;2023-02-20T07:35:14;97469.41;;;-4.55;nan
63287;BME280;49410;55.708;37.522;2023-02-20T07:37:40;97469.63;;;-4.46;nan
63287;BME280;49410;55.708;37.522;2023-02-20T07:40:06;97465.78;;;-4.54;nan
63287;BME280;49410;55.708;37.522;2023-02-20T07:42:31;97468.00;;;-4.59;nan
63287;BME280;49410;55.708;37.522;2023-02-20T07:44:57;97470.06;;;-4.62;nan
63287;BME280;49410;55.708;37.522;2023-02-20T07:47:22;97453.59;;;-4.68;nan
63287;BME280;49410;55.708;37.522;2023-02-20T07:49:48;97471.69;;;-4.71;nan
63287;BME280;49410;55.708;37.522;2023-02-20T07:52:13;97437.44;;;-4.87;nan
63287;BME280;49410;55.708;37.522;2023-02-20T07:54:39;97479.75;;;-4.61;nan
63287;BME280;49410;55.708;37.522;2023-02-20T07:57:05;97482.31;;;-4.60;nan
63287;BME280;49410;55.708;37.522;2023-02-20T07:59:30;97472.28;;;-4.68;nan
63287;BME280;49410;55.708;37.522;2023-02-20T08:01:55;97488.97;;;-4.54;nan
63287;BME280;49410;55.708;37.522;2023-02-20T08:04:21;97467.66;;;-4.65;nan
63287;BME280;49410;55.708;37.522;2023-02-20T08:06:46;97499.28;;;-4.61;nan
63287;BME280;49410;55.708;37.522;2023-02-20T08:09:12;97481.97;;;-4.66;nan
63287;BME280;49410;55.708;37.522;2023-02-20T08:11:37;97491.88;;;-4.57;nan
63287;BME280;49410;55.708;37.522;2023-02-20T08:14:04;97482.31;;;-4.60;nan
63287;BME280;49410;55.708;37.522;2023-02-20T08:16:30;97479.91;;;-4.63;nan
63287;BME280;49410;55.708;37.522;2023-02-20T08:18:55;97490.53;;;-4.52;nan
63287;BME280;49410;55.708;37.522;2023-02-20T08:21:21;97493.44;;;-4.55;nan
63287;BME280;49410;55.708;37.522;2023-02-20T08:23:47;97487.50;;;-4.58;nan
63287;BME280;49410;55.708;37.522;2023-02-20T08:26:13;97497.03;;;-4.44;nan
63287;BME280;49410;55.708;37.522;2023-02-20T08:28:38;97498.34;;;-4.39;nan
63287;BME280;49410;55.708;37.522;2023-02-20T08:31:04;97495.47;;;-4.26;nan
63287;BME280;49410;55.708;37.522;2023-02-20T08:33:30;97500.75;;;-4.14;nan
63287;BME280;49410;55.708;37.522;2023-02-20T08:35:55;97496.25;;;-4.14;nan
63287;BME280;49410;55.708;37.522;2023-02-20T08:38:36;97502.03;;;-4.09;nan
63287;BME280;49410;55.708;37.522;2023-02-20T08:41:04;97498.78;;;-4.12;nan
63287;BME280;49410;55.708;37.522;2023-02-20T08:43:31;97514.50;;;-3.98;nan
63287;BME280;49410;55.708;37.522;2023-02-20T08:45:56;97515.19;;;-3.96;nan
63287;BME280;49410;55.708;37.522;2023-02-20T08:48:22;97523.09;;;-3.94;nan
63287;BME280;49410;55.708;37.522;2023-02-20T08:50:48;97525.22;;;-3.88;nan
63287;BME280;49410;55.708;37.522;2023-02-20T08:53:14;97514.38;;;-3.86;nan
63287;BME280;49410;55.708;37.522;2023-02-20T08:55:40;97513.69;;;-3.88;nan
63287;BME280;49410;55.708;37.522;2023-02-20T08:58:06;97513.31;;;-3.84;nan
63287;BME280;49410;55.708;37.522;2023-02-20T09:00:31;97504.50;;;-3.75;nan
63287;BME280;49410;55.708;37.522;2023-02-20T09:02:56;97501.63;;;-3.83;nan
63287;BME280;49410;55.708;37.522;2023-02-20T09:05:22;97491.22;;;-3.86;nan
63287;BME280;49410;55.708;37.522;2023-02-20T09:07:48;97506.00;;;-3.82;nan
63287;BME280;49410;55.708;37.522;2023-02-20T09:10:15;97499.81;;;-3.82;nan
63287;BME280;49410;55.708;37.522;2023-02-20T09:12:41;97496.97;;;-3.81;nan
63287;BME280;49410;55.708;37.522;2023-02-20T09:15:07;97495.81;;;-3.67;nan
63287;BME280;49410;55.708;37.522;2023-02-20T09:17:33;97501.19;;;-3.57;nan
63287;BME280;49410;55.708;37.522;2023-02-20T09:19:58;97510.94;;;-3.77;nan
63287;BME280;49410;55.708;37.522;2023-02-20T09:22:25;97507.19;;;-3.65;nan
63287;BME280;49410;55.708;37.522;2023-02-20T09:24:51;97512.81;;;-3.68;nan
63287;BME280;49410;55.708;37.522;2023-02-20T09:27:18;97514.38;;;-3.65;nan
63287;BME280;49410;55.708;37.522;2023-02-20T09:29:43;97511.03;;;-3.57;nan
63287;BME280;49410;55.708;37.522;2023-02-20T09:32:09;97520.69;;;-3.66;nan
63287;BME280;49410;55.708;37.522;2023-02-20T09:34:35;97506.66;;;-3.90;nan
63287;BME280;49410;55.708;37.522;2023-02-20T09:37:00;97517.03;;;-3.65;nan
63287;BME280;49410;55.708;37.522;2023-02-20T09:39:26;97518.16;;;-3.68;nan
63287;BME280;49410;55.708;37.522;2023-02-20T09:47:32;97503.78;;;-3.77;nan
63287;BME280;49410;55.708;37.522;2023-02-20T09:50:06;97487.16;;;-3.80;nan
63287;BME280;49410;55.708;37.522;2023-02-20T09:52:38;97503.19;;;-3.80;nan
63287;BME280;49410;55.708;37.522;2023-02-20T09:55:11;97511.97;;;-3.68;nan
63287;BME280;49410;55.708;37.522;2023-02-20T09:57:37;97502.97;;;-3.67;nan
63287;BME280;49410;55.708;37.522;2023-02-20T10:02:39;97501.19;;;-3.88;nan
63287;BME280;49410;55.708;37.522;2023-02-20T10:05:31;97514.78;;;-3.70;nan
63287;BME280;49410;55.708;37.522;2023-02-20T10:07:56;97504.59;;;-3.76;nan
63287;BME280;49410;55.708;37.522;2023-02-20T10:10:22;97508.00;;;-3.74;nan
63287;BME280;49410;55.708;37.522;2023-02-20T10:13:14;97499.66;;;-3.81;nan
63287;BME280;49410;55.708;37.522;2023-02-20T10:19:07;97490.72;;;-3.70;nan
63287;BME280;49410;55.708;37.522;2023-02-20T10:22:08;97495.09;;;-3.69;nan
63287;BME280;49410;55.708;37.522;2023-02-20T10:28:02;97501.03;;;-3.86;nan
63287;BME280;49410;55.708;37.522;2023-02-20T10:30:59;97501.91;;;-3.86;nan
63287;BME280;49410;55.708;37.522;2023-02-20T10:33:42;97489.53;;;-3.87;nan
63287;BME280;49410;55.708;37.522;2023-02-20T10:36:29;97509.13;;;-3.77;nan
63287;BME280;49410;55.708;37.522;2023-02-20T10:39:16;97493.91;;;-4.07;nan
63287;BME280;49410;55.708;37.522;2023-02-20T10:41:52;97500.53;;;-4.01;nan
63287;BME280;49410;55.708;37.522;2023-02-20T10:44:25;97505.97;;;-4.13;nan
63287;BME280;49410;55.708;37.522;2023-02-20T10:52:14;97493.75;;;-3.84;nan
63287;BME280;49410;55.708;37.522;2023-02-20T10:54:45;97494.84;;;-3.87;nan
63287;BME280;49410;55.708;37.522;2023-02-20T10:57:28;97513.13;;;-3.92;nan
63287;BME280;49410;55.708;37.522;2023-02-20T11:02:32;97484.19;;;-3.87;nan
63287;BME280;49410;55.708;37.522;2023-02-20T11:05:09;97499.31;;;-3.66;nan
63287;BME280;49410;55.708;37.522;2023-02-20T11:07:35;97483.22;;;-3.76;nan
63287;BME280;49410;55.708;37.522;2023-02-20T11:10:01;97500.53;;;-3.80;nan
63287;BME280;49410;55.708;37.522;2023-02-20T11:12:41;97496.31;;;-3.73;nan
63287;BME280;49410;55.708;37.522;2023-02-20T11:15:11;97490.75;;;-3.60;nan
63287;BME280;49410;55.708;37.522;2023-02-20T11:17:38;97494.69;;;-3.64;nan
63287;BME280;49410;55.708;37.522;2023-02-20T11:20:06;97484.91;;;-3.85;nan
63287;BME280;49410;55.708;37.522;2023-02-20T11:22:50;97472.84;;;-4.00;nan
63287;BME280;49410;55.708;37.522;2023-02-20T11:28:23;97494.47;;;-3.82;nan
63287;BME280;49410;55.708;37.522;2023-02-20T11:30:59;97489.44;;;-3.76;nan
63287;BME280;49410;55.708;37.522;2023-02-20T11:33:29;97492.16;;;-3.97;nan
63287;BME280;49410;55.708;37.522;2023-02-20T11:35:56;97500.34;;;-4.10;nan
63287;BME280;49410;55.708;37.522;2023-02-20T11:38:26;97510.13;;;-4.20;nan
63287;BME280;49410;55.708;37.522;2023-02-20T11:43:38;97513.84;;;-4.32;nan
63287;BME280;49410;55.708;37.522;2023-02-20T11:48:57;97520.13;;;-4.55;nan
63287;BME280;49410;55.708;37.522;2023-02-20T11:56:56;97530.06;;;-4.57;nan
63287;BME280;49410;55.708;37.522;2023-02-20T11:59:37;97526.56;;;-4.57;nan
63287;BME280;49410;55.708;37.522;2023-02-20T12:02:29;97528.06;;;-4.43;nan
63287;BME280;49410;55.708;37.522;2023-02-20T12:05:12;97529.59;;;-4.29;nan
63287;BME280;49410;55.708;37.522;2023-02-20T12:10:32;97520.94;;;-4.22;nan
63287;BME280;49410;55.708;37.522;2023-02-20T12:13:02;97514.63;;;-4.21;nan
63287;BME280;49410;55.708;37.522;2023-02-20T12:15:28;97517.78;;;-4.27;nan
63287;BME280;49410;55.708;37.522;2023-02-20T12:17:59;97522.38;;;-4.17;nan
63287;BME280;49410;55.708;37.522;2023-02-20T12:20:30;97519.25;;;-4.23;nan
63287;BME280;49410;55.708;37.522;2023-02-20T12:28:26;97519.72;;;-4.50;nan
63287;BME280;49410;55.708;37.522;2023-02-20T12:36:42;97511.59;;;-4.81;nan
63287;BME280;49410;55.708;37.522;2023-02-20T12:42:05;97527.38;;;-4.78;nan
63287;BME280;49410;55.708;37.522;2023-02-20T12:44:58;97531.94;;;-4.69;nan
63287;BME280;49410;55.708;37.522;2023-02-20T12:53:03;97541.06;;;-4.82;nan
63287;BME280;49410;55.708;37.522;2023-02-20T12:55:45;97510.28;;;-4.87;nan
63287;BME280;49410;55.708;37.522;2023-02-20T12:58:22;97517.16;;;-4.73;nan
63287;BME280;49410;55.708;37.522;2023-02-20T13:01:00;97535.47;;;-4.68;nan
63287;BME280;49410;55.708;37.522;2023-02-20T13:06:13;97524.72;;;-4.57;nan
63287;BME280;49410;55.708;37.522;2023-02-20T13:09:03;97516.63;;;-4.55;nan
63287;BME280;49410;55.708;37.522;2023-02-20T13:11:35;97508.16;;;-4.72;nan
63287;BME280;49410;55.708;37.522;2023-02-20T13:22:00;97510.78;;;-4.81;nan
63287;BME280;49410;55.708;37.522;2023-02-20T13:24:29;97523.94;;;-4.69;nan
63287;BME280;49410;55.708;37.522;2023-02-20T13:26:57;97529.09;;;-4.88;nan
63287;BME280;49410;55.708;37.522;2023-02-20T13:29:25;97523.25;;;-4.82;nan
63287;BME280;49410;55.708;37.522;2023-02-20T13:31:57;97516.38;;;-4.96;nan
63287;BME280;49410;55.708;37.522;2023-02-20T13:34:38;97524.50;;;-4.97;nan
63287;BME280;49410;55.708;37.522;2023-02-20T13:37:48;97524.88;;;-4.91;nan
63287;BME280;49410;55.708;37.522;2023-02-20T13:39:50;97526.03;;;-4.84;nan
63287;BME280;49410;55.708;37.522;2023-02-20T13:42:25;97525.69;;;-4.90;nan
63287;BME280;49410;55.708;37.522;2023-02-20T13:44:51;97513.13;;;-5.00;nan
63287;BME280;49410;55.708;37.522;2023-02-20T13:54:58;97529.22;;;-4.90;nan
63287;BME280;49410;55.708;37.522;2023-02-20T13:57:29;97535.78;;;-5.05;nan
63287;BME280;49410;55.708;37.522;2023-02-20T13:59:59;97526.00;;;-5.16;nan
63287;BME280;49410;55.708;37.522;2023-02-20T14:02:26;97519.50;;;-5.35;nan
63287;BME280;49410;55.708;37.522;2023-02-20T14:05:00;97492.97;;;-5.36;nan
63287;BME280;49410;55.708;37.522;2023-02-20T14:07:37;97520.41;;;-5.13;nan
63287;BME280;49410;55.708;37.522;2023-02-20T14:10:27;97521.28;;;-5.12;nan
63287;BME280;49410;55.708;37.522;2023-02-20T14:13:02;97528.69;;;-5.16;nan
63287;BME280;49410;55.708;37.522;2023-02-20T14:15:30;97520.91;;;-5.19;nan
63287;BME280;49410;55.708;37.522;2023-02-20T14:17:57;97530.53;;;-5.39;nan
63287;BME280;49410;55.708;37.522;2023-02-20T14:20:35;97547.94;;;-5.24;nan
63287;BME280;49410;55.708;37.522;2023-02-20T14:26:28;97552.44;;;-5.24;nan
63287;BME280;49410;55.708;37.522;2023-02-20T14:28:55;97547.09;;;-5.24;nan
63287;BME280;49410;55.708;37.522;2023-02-20T14:31:26;97540.31;;;-5.28;nan
63287;BME280;49410;55.708;37.522;2023-02-20T14:33:57;97542.75;;;-5.37;nan
63287;BME280;49410;55.708;37.522;2023-02-20T14:36:48;97549.16;;;-5.28;nan
63287;BME280;49410;55.708;37.522;2023-02-20T14:41:54;97549.88;;;-5.37;nan
63287;BME280;49410;55.708;37.522;2023-02-20T14:44:20;97505.69;;;-5.63;nan
63287;BME280;49410;55.708;37.522;2023-02-20T14:46:51;97532.47;;;-5.53;nan
63287;BME280;49410;55.708;37.522;2023-02-20T14:49:24;97544.91;;;-5.42;nan
63287;BME280;49410;55.708;37.522;2023-02-20T14:51:50;97560.44;;;-5.36;nan
63287;BME280;49410;55.708;37.522;2023-02-20T14:54:22;97561.50;;;-5.38;nan
63287;BME280;49410;55.708;37.522;2023-02-20T14:56:49;97544.31;;;-5.46;nan
63287;BME280;49410;55.708;37.522;2023-02-20T14:59:31;97549.88;;;-5.49;nan
63287;BME280;49410;55.708;37.522;2023-02-20T15:02:18;97549.66;;;-5.46;nan
63287;BME280;49410;55.708;37.522;2023-02-20T15:04:59;97559.72;;;-5.38;nan
63287;BME280;49410;55.708;37.522;2023-02-20T15:07:26;97560.53;;;-5.37;nan
63287;BME280;49410;55.708;37.522;2023-02-20T15:09:57;97556.81;;;-5.35;nan
63287;BME280;49410;55.708;37.522;2023-02-20T15:12:27;97556.81;;;-5.35;nan
63287;BME280;49410;55.708;37.522;2023-02-20T15:14:58;97554.16;;;-5.35;nan
63287;BME280;49410;55.708;37.522;2023-02-20T15:17:27;97549.19;;;-5.39;nan
63287;BME280;49410;55.708;37.522;2023-02-20T15:19:53;97547.94;;;-5.47;nan